createdAt,value
2023-03-26T00:02:29.889Z,5.43
2023-03-26T00:04:58.244Z,5.53
2023-03-26T00:07:28.050Z,5.28
2023-03-26T00:09:58.054Z,7.93
2023-03-26T00:12:27.650Z,5.78
2023-03-26T00:14:56.238Z,5.95
2023-03-26T00:17:24.787Z,6.93
2023-03-26T00:19:53.742Z,5.18
2023-03-26T00:22:23.801Z,6.75
2023-03-26T00:24:52.206Z,7.40
2023-03-26T00:27:20.329Z,7.57
2023-03-26T00:29:49.852Z,6.72
2023-03-26T00:32:18.113Z,7.00
2023-03-26T00:34:46.279Z,5.63
2023-03-26T00:37:15.025Z,5.55
2023-03-26T00:39:44.677Z,5.85
2023-03-26T00:42:15.029Z,6.40
2023-03-26T00:44:43.217Z,4.93
2023-03-26T00:47:13.335Z,5.40
2023-03-26T00:49:41.487Z,5.50
2023-03-26T00:52:10.055Z,5.07
2023-03-26T00:54:38.217Z,5.40
2023-03-26T00:57:06.942Z,3.95
2023-03-26T00:59:35.988Z,5.95
2023-03-26T01:02:05.016Z,5.03
2023-03-26T01:04:37.524Z,7.47
2023-03-26T01:07:13.427Z,5.43
2023-03-26T01:09:50.324Z,6.90
2023-03-26T01:12:22.424Z,8.48
2023-03-26T01:14:53.088Z,4.40
2023-03-26T01:17:22.121Z,5.47
2023-03-26T01:19:58.905Z,4.32
2023-03-26T01:22:28.648Z,4.63
2023-03-26T01:24:58.265Z,4.80
2023-03-26T01:27:35.945Z,4.30
2023-03-26T01:30:14.191Z,4.82
2023-03-26T01:32:55.727Z,4.72
2023-03-26T01:35:34.573Z,4.25
2023-03-26T01:38:17.861Z,6.63
2023-03-26T01:40:50.588Z,6.03
2023-03-26T01:43:29.668Z,5.25
2023-03-26T01:46:01.116Z,4.72
2023-03-26T01:48:36.397Z,4.55
2023-03-26T01:51:05.961Z,5.18
2023-03-26T01:53:35.778Z,3.92
2023-03-26T01:56:15.381Z,4.22
2023-03-26T01:58:56.788Z,5.00
2023-03-26T02:01:31.334Z,4.30
2023-03-26T02:04:05.660Z,3.65
2023-03-26T02:06:43.050Z,4.97
2023-03-26T02:09:14.919Z,4.72
2023-03-26T02:11:46.948Z,3.25
2023-03-26T02:14:16.072Z,3.83
2023-03-26T02:16:48.078Z,3.75
2023-03-26T02:19:21.859Z,3.75
2023-03-26T02:21:51.487Z,3.72
2023-03-26T02:24:20.297Z,4.38
2023-03-26T02:26:49.925Z,3.65
2023-03-26T02:29:20.450Z,5.43
2023-03-26T02:31:50.174Z,4.70
2023-03-26T02:34:18.562Z,4.43
2023-03-26T02:36:47.026Z,3.78
2023-03-26T02:39:15.424Z,4.90
2023-03-26T02:41:43.629Z,4.32
2023-03-26T02:44:13.223Z,3.05
2023-03-26T02:46:41.380Z,3.53
2023-03-26T02:49:09.558Z,2.92
2023-03-26T02:51:37.741Z,2.40
2023-03-26T02:54:07.246Z,2.42
2023-03-26T02:56:35.822Z,3.05
2023-03-26T02:59:04.169Z,3.00
2023-03-26T03:01:35.113Z,3.08
2023-03-26T03:04:04.592Z,3.38
2023-03-26T03:06:32.710Z,3.83
2023-03-26T03:09:02.684Z,4.60
2023-03-26T03:11:30.842Z,3.50
2023-03-26T03:13:59.039Z,2.97
2023-03-26T03:16:27.413Z,2.80
2023-03-26T03:18:58.293Z,5.80
2023-03-26T03:21:28.695Z,2.97
2023-03-26T03:23:59.948Z,4.43
2023-03-26T03:26:30.140Z,4.85
2023-03-26T03:28:59.444Z,3.95
2023-03-26T03:31:28.515Z,3.63
2023-03-26T03:33:58.093Z,3.35
2023-03-26T03:36:27.979Z,3.83
2023-03-26T03:38:56.398Z,4.03
2023-03-26T03:41:24.567Z,4.63
2023-03-26T03:43:52.656Z,4.22
2023-03-26T03:46:20.807Z,4.15
2023-03-26T03:48:50.005Z,3.95
2023-03-26T03:51:20.017Z,6.57
2023-03-26T03:53:49.421Z,5.45
2023-03-26T03:56:19.280Z,5.65
2023-03-26T03:58:47.594Z,5.75
2023-03-26T04:01:17.083Z,4.32
2023-03-26T04:03:46.609Z,5.22
2023-03-26T04:06:19.142Z,6.50
2023-03-26T04:08:48.905Z,6.07
2023-03-26T04:11:17.071Z,5.80
2023-03-26T04:13:45.550Z,4.80
2023-03-26T04:16:13.786Z,4.18
2023-03-26T04:18:41.964Z,4.28
2023-03-26T04:21:12.707Z,4.95
2023-03-26T04:23:42.439Z,4.88
2023-03-26T04:26:16.861Z,5.82
2023-03-26T04:28:49.265Z,4.38
2023-03-26T04:31:24.688Z,5.15
2023-03-26T04:33:55.973Z,5.93
2023-03-26T04:36:28.654Z,5.88
2023-03-26T04:38:58.609Z,5.55
2023-03-26T04:41:29.191Z,5.32
2023-03-26T04:43:57.643Z,4.90
2023-03-26T04:46:25.792Z,4.95
2023-03-26T04:48:55.374Z,5.50
2023-03-26T04:51:27.294Z,4.90
2023-03-26T04:53:57.895Z,4.47
2023-03-26T04:56:37.577Z,3.40
2023-03-26T04:59:06.250Z,5.07
2023-03-26T05:01:37.941Z,4.47
2023-03-26T05:04:06.552Z,5.35
2023-03-26T05:06:35.082Z,4.32
2023-03-26T05:09:03.325Z,5.28
2023-03-26T05:11:32.868Z,4.07
2023-03-26T05:14:01.001Z,4.13
2023-03-26T05:16:29.964Z,4.60
2023-03-26T05:18:58.135Z,4.45
2023-03-26T05:21:26.389Z,5.70
2023-03-26T05:23:54.533Z,5.80
2023-03-26T05:26:22.669Z,5.05
2023-03-26T05:28:52.505Z,4.38
2023-03-26T05:31:22.394Z,5.47
2023-03-26T05:33:50.960Z,6.65
2023-03-26T05:36:19.332Z,4.20
2023-03-26T05:38:49.792Z,4.78
2023-03-26T05:41:18.470Z,3.55
2023-03-26T05:43:47.895Z,4.25
2023-03-26T05:46:18.212Z,5.40
2023-03-26T05:48:46.743Z,4.70
2023-03-26T05:51:16.297Z,4.82
2023-03-26T05:53:44.684Z,4.07
2023-03-26T05:56:13.006Z,5.35
2023-03-26T05:58:42.160Z,5.55
2023-03-26T06:01:16.631Z,6.35
2023-03-26T06:03:47.302Z,4.95
2023-03-26T06:06:18.739Z,5.50
2023-03-26T06:09:01.988Z,5.00
2023-03-26T06:11:31.958Z,6.55
2023-03-26T06:14:00.487Z,8.02
2023-03-26T06:16:29.073Z,7.03
2023-03-26T06:18:58.942Z,6.63
2023-03-26T06:21:27.397Z,6.28
2023-03-26T06:23:55.996Z,7.32
2023-03-26T06:26:24.212Z,5.50
2023-03-26T06:28:52.872Z,6.50
2023-03-26T06:31:20.964Z,6.00
2023-03-26T06:33:49.771Z,6.88
2023-03-26T06:36:19.391Z,7.55
2023-03-26T06:38:47.690Z,9.13
2023-03-26T06:41:15.971Z,7.25
2023-03-26T06:43:44.121Z,7.55
2023-03-26T06:46:13.412Z,7.60
2023-03-26T06:48:42.334Z,8.18
2023-03-26T06:51:11.099Z,8.10
2023-03-26T06:53:40.682Z,9.60
2023-03-26T06:56:10.194Z,8.25
2023-03-26T06:58:38.307Z,6.93
2023-03-26T07:01:07.007Z,6.93
2023-03-26T07:03:35.282Z,8.48
2023-03-26T07:06:03.462Z,7.05
2023-03-26T07:08:32.120Z,8.82
2023-03-26T07:11:01.846Z,6.93
2023-03-26T07:13:30.072Z,6.53
2023-03-26T07:15:58.315Z,5.82
2023-03-26T07:18:26.935Z,6.07
2023-03-26T07:20:55.809Z,5.43
2023-03-26T07:23:28.629Z,5.32
2023-03-26T07:25:57.244Z,4.78
2023-03-26T07:28:34.317Z,4.97
2023-03-26T07:31:12.230Z,4.80
2023-03-26T07:33:48.034Z,5.13
2023-03-26T07:36:27.881Z,4.35
2023-03-26T07:39:09.964Z,4.13
2023-03-26T07:41:47.054Z,5.10
2023-03-26T07:44:49.886Z,4.20
2023-03-26T07:47:26.223Z,5.38
2023-03-26T07:49:57.863Z,5.05
2023-03-26T07:52:27.676Z,4.20
2023-03-26T07:54:57.911Z,5.28
2023-03-26T07:57:44.390Z,4.28
2023-03-26T08:00:22.210Z,4.45
2023-03-26T08:03:26.520Z,5.70
2023-03-26T08:06:04.290Z,4.93
2023-03-26T08:08:42.232Z,4.95
2023-03-26T08:11:26.243Z,5.63
2023-03-26T08:14:02.506Z,6.05
2023-03-26T08:16:38.337Z,5.35
2023-03-26T08:19:19.482Z,5.28
2023-03-26T08:21:54.329Z,6.82
2023-03-26T08:24:28.440Z,5.72
2023-03-26T08:27:05.428Z,7.13
2023-03-26T08:29:45.416Z,4.55
2023-03-26T08:32:18.057Z,4.93
2023-03-26T08:34:46.244Z,5.18
2023-03-26T08:37:15.012Z,5.22
2023-03-26T08:39:43.178Z,5.30
2023-03-26T08:42:56.882Z,5.63
2023-03-26T08:45:51.480Z,5.65
2023-03-26T08:48:50.788Z,5.40
2023-03-26T08:52:06.538Z,3.60
2023-03-26T08:55:16.542Z,4.88
2023-03-26T08:58:26.652Z,4.47
2023-03-26T09:01:21.287Z,2.72
2023-03-26T09:04:30.956Z,3.20
2023-03-26T09:07:58.468Z,2.85
2023-03-26T09:10:48.468Z,2.83
2023-03-26T09:13:38.228Z,2.40
2023-03-26T09:16:45.494Z,1.85
2023-03-26T09:19:45.620Z,2.78
2023-03-26T09:22:58.737Z,3.38
2023-03-26T09:25:51.927Z,2.53
2023-03-26T09:29:02.933Z,3.10
2023-03-26T09:32:09.499Z,2.78
2023-03-26T09:34:58.318Z,2.75
2023-03-26T09:37:34.999Z,3.88
2023-03-26T09:40:18.816Z,2.78
2023-03-26T09:42:52.414Z,3.92
2023-03-26T09:45:43.858Z,3.95
2023-03-26T09:48:34.185Z,3.17
2023-03-26T09:51:30.000Z,3.03
2023-03-26T09:54:21.212Z,3.35
2023-03-26T09:56:58.955Z,2.92
2023-03-26T09:59:50.248Z,2.55
2023-03-26T10:02:45.972Z,3.38
2023-03-26T10:05:45.931Z,3.28
2023-03-26T10:08:32.537Z,3.80
2023-03-26T10:11:06.592Z,4.10
2023-03-26T10:13:49.508Z,2.58
2023-03-26T10:16:27.577Z,3.80
2023-03-26T10:19:08.310Z,3.90
2023-03-26T10:21:47.022Z,5.18
2023-03-26T10:24:33.525Z,3.50
2023-03-26T10:27:25.284Z,3.60
2023-03-26T10:32:45.986Z,3.55
2023-03-26T10:35:27.477Z,4.05
2023-03-26T10:38:09.954Z,3.20
2023-03-26T10:40:46.429Z,3.50
2023-03-26T10:44:05.193Z,6.05
2023-03-26T10:47:04.459Z,4.68
2023-03-26T10:49:52.315Z,3.17
2023-03-26T10:52:25.004Z,2.53
2023-03-26T10:54:59.449Z,2.97
2023-03-26T10:57:42.503Z,3.05
2023-03-26T11:00:25.009Z,2.55
2023-03-26T11:03:19.830Z,3.17
2023-03-26T11:05:56.357Z,6.55
2023-03-26T11:08:33.092Z,4.07
2023-03-26T11:11:13.256Z,6.38
2023-03-26T11:13:49.256Z,3.88
2023-03-26T11:16:25.141Z,3.70
2023-03-26T11:18:58.660Z,4.70
2023-03-26T11:21:34.776Z,4.90
2023-03-26T11:24:20.445Z,3.50
2023-03-26T11:26:55.982Z,4.30
2023-03-26T11:29:40.608Z,3.92
2023-03-26T11:32:13.724Z,3.70
2023-03-26T11:34:47.501Z,2.75
2023-03-26T11:37:20.065Z,2.90
2023-03-26T11:39:54.401Z,3.55
2023-03-26T11:42:26.222Z,3.70
2023-03-26T11:44:57.270Z,4.57
2023-03-26T11:47:32.252Z,3.60
2023-03-26T11:50:04.593Z,3.50
2023-03-26T11:52:32.875Z,3.35
2023-03-26T11:55:00.994Z,5.13
2023-03-26T11:57:33.501Z,3.60
2023-03-26T12:00:15.928Z,3.28
2023-03-26T12:02:45.735Z,3.80
2023-03-26T12:05:19.857Z,3.63
2023-03-26T12:07:54.766Z,3.03
2023-03-26T12:10:29.644Z,3.85
2023-03-26T12:13:00.365Z,4.38
2023-03-26T12:15:30.884Z,3.50
2023-03-26T12:18:00.455Z,2.87
2023-03-26T12:20:42.693Z,3.53
2023-03-26T12:23:38.848Z,2.60
2023-03-26T12:26:16.102Z,3.47
2023-03-26T12:28:49.392Z,3.33
2023-03-26T12:31:22.640Z,3.28
2023-03-26T12:34:10.415Z,2.72
2023-03-26T12:36:39.947Z,3.10
2023-03-26T12:40:09.350Z,3.50
2023-03-26T12:44:46.872Z,3.03
2023-03-26T12:45:17.413Z,2.08
2023-03-26T12:47:58.377Z,2.30
2023-03-26T12:50:37.069Z,3.05
2023-03-26T12:53:28.397Z,2.50
2023-03-26T12:56:01.872Z,2.72
2023-03-26T12:58:51.507Z,1.98
2023-03-26T13:01:34.462Z,2.75
2023-03-26T13:04:30.262Z,1.90
2023-03-26T13:07:02.535Z,2.38
2023-03-26T13:09:41.367Z,2.38
2023-03-26T13:12:20.897Z,2.80
2023-03-26T13:15:03.676Z,2.92
2023-03-26T13:17:38.478Z,1.95
2023-03-26T13:20:15.885Z,2.97
2023-03-26T13:22:53.182Z,1.90
2023-03-26T13:25:34.348Z,2.00
2023-03-26T13:28:18.672Z,2.50
2023-03-26T13:30:58.471Z,2.58
2023-03-26T13:33:39.939Z,2.67
2023-03-26T13:36:22.326Z,2.10
2023-03-26T13:39:05.130Z,3.03
2023-03-26T13:41:49.696Z,3.58
2023-03-26T13:44:31.511Z,4.13
2023-03-26T13:47:06.376Z,4.45
2023-03-26T13:49:39.941Z,4.88
2023-03-26T13:52:11.885Z,4.57
2023-03-26T13:54:47.008Z,5.45
2023-03-26T13:57:24.313Z,6.70
2023-03-26T13:59:57.580Z,4.30
2023-03-26T14:02:34.172Z,4.50
2023-03-26T14:05:08.142Z,3.55
2023-03-26T14:07:43.665Z,1.77
2023-03-26T14:10:16.361Z,4.85
2023-03-26T14:12:53.884Z,2.85
2023-03-26T14:15:27.972Z,5.93
2023-03-26T14:18:06.144Z,3.45
2023-03-26T14:21:02.059Z,1.70
2023-03-26T14:24:06.784Z,1.75
2023-03-26T14:26:52.014Z,1.95
2023-03-26T14:29:56.599Z,2.47
2023-03-26T14:32:46.737Z,1.98
2023-03-26T14:35:33.729Z,1.52
2023-03-26T14:38:33.770Z,1.55
2023-03-26T14:41:19.354Z,2.00
2023-03-26T14:44:48.543Z,2.10
2023-03-26T14:47:21.887Z,1.88
2023-03-26T14:50:38.246Z,1.98
2023-03-26T14:53:17.329Z,1.88
2023-03-26T14:56:23.483Z,2.35
2023-03-26T14:59:22.745Z,4.80
2023-03-26T15:02:47.485Z,1.40
2023-03-26T15:05:49.631Z,2.08
2023-03-26T15:08:53.421Z,1.60
2023-03-26T15:11:28.244Z,2.17
2023-03-26T15:14:51.877Z,2.72
2023-03-26T15:17:55.208Z,1.80
2023-03-26T15:21:02.018Z,1.67
2023-03-26T15:24:10.644Z,1.85
2023-03-26T15:27:26.958Z,1.92
2023-03-26T15:30:25.951Z,2.28
2023-03-26T15:33:35.152Z,2.10
2023-03-26T15:36:41.334Z,2.15
2023-03-26T15:39:38.340Z,1.98
2023-03-26T15:42:14.663Z,1.80
2023-03-26T15:44:55.291Z,1.92
2023-03-26T15:47:48.751Z,1.90
2023-03-26T15:50:33.314Z,2.53
2023-03-26T15:53:14.998Z,1.83
2023-03-26T15:58:21.961Z,2.13
2023-03-26T16:01:02.846Z,1.63
2023-03-26T16:03:41.336Z,1.73
2023-03-26T16:06:31.302Z,1.40
2023-03-26T16:09:20.701Z,2.72
2023-03-26T16:11:54.959Z,1.50
2023-03-26T16:14:24.822Z,1.30
2023-03-26T16:16:58.673Z,1.70
2023-03-26T16:19:44.155Z,2.45
2023-03-26T16:22:17.453Z,1.50
2023-03-26T16:25:28.231Z,1.95
2023-03-26T16:28:27.952Z,1.73
2023-03-26T16:31:38.363Z,2.72
2023-03-26T16:34:29.437Z,1.73
2023-03-26T16:37:00.789Z,2.40
2023-03-26T16:39:43.770Z,2.42
2023-03-26T16:42:39.728Z,2.55
2023-03-26T16:45:19.877Z,2.20
2023-03-26T16:47:56.601Z,1.30
2023-03-26T16:50:34.435Z,1.83
2023-03-26T16:53:17.677Z,1.98
2023-03-26T16:55:54.219Z,2.03
2023-03-26T16:58:31.905Z,1.98
2023-03-26T17:01:16.048Z,1.33
2023-03-26T17:03:55.455Z,2.78
2023-03-26T17:06:54.169Z,1.88
2023-03-26T17:09:31.882Z,3.83
2023-03-26T17:12:09.018Z,1.75
2023-03-26T17:14:52.568Z,1.77
2023-03-26T17:17:41.575Z,1.80
2023-03-26T17:20:21.620Z,1.40
2023-03-26T17:22:58.649Z,2.15
2023-03-26T17:25:32.762Z,2.10
2023-03-26T17:28:19.245Z,2.05
2023-03-26T17:31:02.206Z,2.33
2023-03-26T17:33:34.930Z,2.22
2023-03-26T17:36:33.237Z,1.70
2023-03-26T17:39:22.958Z,1.50
2023-03-26T17:42:13.043Z,1.70
2023-03-26T17:44:45.861Z,1.75
2023-03-26T17:47:28.271Z,1.13
2023-03-26T17:50:01.444Z,1.73
2023-03-26T17:52:42.351Z,2.95
2023-03-26T17:55:16.344Z,1.75
2023-03-26T17:57:47.999Z,2.15
2023-03-26T18:00:20.648Z,2.47
2023-03-26T18:02:56.476Z,2.05
2023-03-26T18:05:29.052Z,1.85
2023-03-26T18:08:31.378Z,2.42
2023-03-26T18:11:22.779Z,2.63
2023-03-26T18:14:23.221Z,2.58
2023-03-26T18:16:54.285Z,2.45
2023-03-26T18:19:25.034Z,2.30
2023-03-26T18:21:54.751Z,3.13
2023-03-26T18:24:27.627Z,2.53
2023-03-26T18:27:00.222Z,2.25
2023-03-26T18:29:30.127Z,1.95
2023-03-26T18:32:00.836Z,3.92
2023-03-26T18:34:32.308Z,2.72
2023-03-26T18:37:16.871Z,3.00
2023-03-26T18:39:59.112Z,2.10
2023-03-26T18:42:29.598Z,2.50
2023-03-26T18:45:01.113Z,3.20
2023-03-26T18:47:31.976Z,3.85
2023-03-26T18:50:01.840Z,3.38
2023-03-26T18:52:33.245Z,2.88
2023-03-26T18:57:32.492Z,2.85
2023-03-26T19:00:18.709Z,3.50
2023-03-26T19:02:49.906Z,2.28
2023-03-26T19:05:21.145Z,2.83
2023-03-26T19:07:50.751Z,2.47
2023-03-26T19:10:22.307Z,3.55
2023-03-26T19:15:25.744Z,2.72
2023-03-26T19:17:59.835Z,2.90
2023-03-26T19:20:41.467Z,3.33
2023-03-26T19:25:44.202Z,2.22
2023-03-26T19:28:18.651Z,1.90
2023-03-26T19:30:47.018Z,2.95
2023-03-26T19:33:18.498Z,2.05
2023-03-26T19:38:24.430Z,2.17
2023-03-26T19:40:54.266Z,2.42
2023-03-26T19:43:23.200Z,1.30
2023-03-26T19:46:00.128Z,2.08
2023-03-26T19:48:46.746Z,1.73
2023-03-26T19:51:22.144Z,1.60
2023-03-26T19:53:55.147Z,2.05
2023-03-26T19:56:23.966Z,1.80
2023-03-26T19:58:52.585Z,1.58
2023-03-26T20:01:22.960Z,2.03
2023-03-26T20:03:53.524Z,2.10
2023-03-26T20:06:31.042Z,1.80
2023-03-26T20:09:06.424Z,2.28
2023-03-26T20:11:38.105Z,1.90
2023-03-26T20:16:42.200Z,2.47
2023-03-26T20:19:13.667Z,2.72
2023-03-26T20:21:44.468Z,2.92
2023-03-26T20:26:43.565Z,3.05
2023-03-26T20:29:11.765Z,2.33
2023-03-26T20:31:41.630Z,2.65
2023-03-26T20:34:18.163Z,2.78
2023-03-26T20:36:48.306Z,2.95
2023-03-26T20:39:16.573Z,2.78
2023-03-26T20:41:48.535Z,3.97
2023-03-26T20:44:18.512Z,4.22
2023-03-26T20:46:48.383Z,3.50
2023-03-26T20:49:18.042Z,3.63
2023-03-26T20:51:49.006Z,3.42
2023-03-26T20:54:18.813Z,3.83
2023-03-26T20:56:48.029Z,4.50
2023-03-26T20:59:22.507Z,4.15
2023-03-26T21:01:51.925Z,4.13
2023-03-26T21:04:20.598Z,3.72
2023-03-26T21:06:50.868Z,5.60
2023-03-26T21:09:24.019Z,5.85
2023-03-26T21:12:01.882Z,6.00
2023-03-26T21:14:34.562Z,5.55
2023-03-26T21:17:03.297Z,7.32
2023-03-26T21:19:32.062Z,9.75
2023-03-26T21:22:09.582Z,9.63
2023-03-26T21:24:57.131Z,9.82
2023-03-26T21:27:31.050Z,7.15
2023-03-26T21:30:00.190Z,6.75
2023-03-26T21:32:29.012Z,7.18
2023-03-26T21:34:59.455Z,7.95
2023-03-26T21:37:29.863Z,7.30
2023-03-26T21:39:59.964Z,7.30
2023-03-26T21:42:29.540Z,7.72
2023-03-26T21:44:58.111Z,6.75
2023-03-26T21:47:27.092Z,6.05
2023-03-26T21:49:56.222Z,6.15
2023-03-26T21:52:25.395Z,5.93
2023-03-26T21:54:58.149Z,4.63
2023-03-26T21:57:39.483Z,4.32
2023-03-26T22:00:15.200Z,4.45
2023-03-26T22:02:56.356Z,4.78
2023-03-26T22:05:30.496Z,4.30
2023-03-26T22:08:01.799Z,4.35
2023-03-26T22:10:32.910Z,4.43
2023-03-26T22:13:01.291Z,5.57
2023-03-26T22:15:31.249Z,6.65
2023-03-26T22:18:02.202Z,5.50
2023-03-26T22:20:30.616Z,6.45
2023-03-26T22:22:59.842Z,6.57
2023-03-26T22:25:28.109Z,6.38
2023-03-26T22:27:58.273Z,6.70
2023-03-26T22:30:27.317Z,7.60
2023-03-26T22:32:55.832Z,7.95
2023-03-26T22:35:24.357Z,8.18
2023-03-26T22:37:52.717Z,6.85
2023-03-26T22:40:29.545Z,7.68
2023-03-26T22:42:59.238Z,6.82
2023-03-26T22:45:27.800Z,7.53
2023-03-26T22:48:03.701Z,7.30
2023-03-26T22:50:32.494Z,5.88
2023-03-26T22:53:00.834Z,6.57
2023-03-26T22:55:29.859Z,5.85
2023-03-26T22:57:59.789Z,6.57
2023-03-26T23:00:28.068Z,6.60
2023-03-26T23:03:00.519Z,6.70
2023-03-26T23:05:29.558Z,5.45
2023-03-26T23:07:58.363Z,9.82
2023-03-26T23:10:26.512Z,7.43
2023-03-26T23:12:54.589Z,7.47
2023-03-26T23:15:25.960Z,7.18
2023-03-26T23:20:23.373Z,8.68
2023-03-26T23:22:52.644Z,8.75
2023-03-26T23:25:21.138Z,8.90
2023-03-26T23:27:50.792Z,9.00
2023-03-26T23:30:19.421Z,9.32
2023-03-26T23:32:49.213Z,9.93
2023-03-26T23:35:17.814Z,9.30
2023-03-26T23:37:46.114Z,9.55
2023-03-26T23:40:14.708Z,11.07
2023-03-26T23:42:42.888Z,10.27
2023-03-26T23:45:12.417Z,9.85
2023-03-26T23:47:42.580Z,10.10
2023-03-26T23:50:13.143Z,9.30
2023-03-26T23:52:41.442Z,9.43
2023-03-26T23:55:10.286Z,8.93
2023-03-26T23:57:38.351Z,8.70
